CheckWX is a tool to help pilots better visualize weather data.  It is not intended as a substitute for an official pre-flight weather briefing.

10:46:39 UTC

CWLY METAR
Lytton Airport
Lytton, Canada
Current

47 mins ago

CWLY 191000Z AUTO 20014G22KT 9SM CLR 19/10 A2979 RMK SLP086 DENSITY ALT 1500FT
Observed
Aug-19 @ 10:00 UTC
Wind
  • 200° at 14 KTS
  • Gusting to 22 KTS
Visibility
9 SM
Flight Rules
VFR
Cloud Levels
  • Clear skies
Temperature
19°C / 66°F
Dewpoint
10°C / 50°F
Humidity
56%
Altimeter
29.79" Hg
Pressure
1008.82 hPa
Previous

2 hours ago

CWLY 190900Z AUTO 20013G25KT 170V230 9SM CLR 20/10 A2977 RMK SLP078 DENSITY ALT 1600FT
Observed
Aug-19 @ 09:00 UTC
Wind
  • 200° at 13 KTS
  • Gusting to 25 KTS
Visibility
9 SM
Flight Rules
VFR
Cloud Levels
  • Clear skies
Temperature
20°C / 68°F
Dewpoint
10°C / 50°F
Humidity
53%
Altimeter
29.77" Hg
Pressure
1008.12 hPa
Previous

3 hours ago

CWLY 190800Z AUTO 21011G24KT 170V260 9SM OVC210 21/09 A2974 RMK SLP070 DENSITY ALT 1700FT
Observed
Aug-19 @ 08:00 UTC
Wind
  • 210° at 11 KTS
  • Gusting to 24 KTS
Visibility
9 SM
Flight Rules
VFR
Cloud Levels
  • Overcast at 21,000' AGL
Temperature
21°C / 70°F
Dewpoint
C / 48°F
Humidity
46%
Altimeter
29.74" Hg
Pressure
1007.12 hPa